Avera, Georgia
Current Conditions -  °F | °C
As of 7:15 PM on Monday 24 Nov 2014 (Local Time) from KOKZ Reporting Station
Overcast Overcast  
Wind Chill: 67°   Ceiling: 700
Heat Index: 67°   Visibility: 7mi
Dew Point: 66°   Wind: 7mph
Humidity: 96%   Direction: 190°S
Pressure: 29.93"   Gusts: NA
Location:  33.19°N, 82.53°W
Report Text: KOKZ 250015Z AUTO 19006KT 7SM OVC007 19/19 A2993 RMK AO2 LTG DSNT SE T01940188
Loading
Personal Weather Stations






























Interactive Weather Map New forecast layout! Learn more

10-Day Weather Forecast

Advertisements
Track Severe Weather on mobile